NKS892 KFLL-KJAX
Flight info
| Callsign | NKS892 |
|---|---|
| Flight time | N/A |
| Altitude | 30000 |
| Route | FRSBE2 STYMY ORL/N0438F310 HAINY QUBEN1 |
| Aircraft | A20N/M-SDE2E3FGHIRWXY/LB1 |
Departure
| Time | 2026-05-03 23:57 |
|---|---|
| Airport | Fort Lauderdale Hollywood International Airport (KFLL) |
Arrival
| Time | N/A |
|---|---|
| Airport | Jacksonville International Airport (KJAX) |
| Time | Latitude | Longitude | Altitude | Speed | Heading |
|---|---|---|---|---|---|
| 2026-05-03 22:47 | 26.07060 | -80.14626 | 24 ft | 0 kts | 359° |
| 2026-05-03 22:57 | 26.07051 | -80.14626 | 27 ft | 3 kts | 359° |
| 2026-05-03 22:58 | 26.07032 | -80.14627 | 26 ft | 3 kts | 17° |
| 2026-05-03 22:58 | 26.07015 | -80.14632 | 24 ft | 3 kts | 7° |
| 2026-05-03 22:58 | 26.06997 | -80.14631 | 24 ft | 3 kts | 313° |
| 2026-05-03 22:58 | 26.06992 | -80.14622 | 24 ft | 0 kts | 272° |
| 2026-05-03 23:10 | 26.06992 | -80.14632 | 23 ft | 3 kts | 272° |
| 2026-05-03 23:10 | 26.06993 | -80.14665 | 23 ft | 0 kts | 272° |
| 2026-05-03 23:10 | 26.06993 | -80.14666 | 23 ft | 1 kts | 272° |
| 2026-05-03 23:10 | 26.06969 | -80.14723 | 22 ft | 15 kts | 235° |
| 2026-05-03 23:11 | 26.06942 | -80.14772 | 22 ft | 8 kts | 236° |
| 2026-05-03 23:11 | 26.06911 | -80.14842 | 23 ft | 12 kts | 264° |
| 2026-05-03 23:11 | 26.06911 | -80.14941 | 24 ft | 12 kts | 270° |
| 2026-05-03 23:11 | 26.06912 | -80.15030 | 26 ft | 11 kts | 270° |
| 2026-05-03 23:12 | 26.06897 | -80.15118 | 26 ft | 12 kts | 227° |
| 2026-05-03 23:12 | 26.06823 | -80.15131 | 26 ft | 11 kts | 179° |
| 2026-05-03 23:12 | 26.06753 | -80.15131 | 26 ft | 10 kts | 180° |
| 2026-05-03 23:12 | 26.06700 | -80.15153 | 27 ft | 9 kts | 240° |
| 2026-05-03 23:13 | 26.06696 | -80.15236 | 28 ft | 9 kts | 270° |
| 2026-05-03 23:13 | 26.06696 | -80.15246 | 29 ft | 0 kts | 270° |
| 2026-05-03 23:14 | 26.06696 | -80.15264 | 29 ft | 4 kts | 270° |
| 2026-05-03 23:15 | 26.06696 | -80.15315 | 29 ft | 9 kts | 270° |
| 2026-05-03 23:15 | 26.06696 | -80.15381 | 29 ft | 9 kts | 270° |
| 2026-05-03 23:15 | 26.06697 | -80.15422 | 29 ft | 0 kts | 270° |
| 2026-05-03 23:15 | 26.06697 | -80.15437 | 29 ft | 0 kts | 270° |
| 2026-05-03 23:36 | 26.06697 | -80.15449 | 29 ft | 0 kts | 270° |
| 2026-05-03 23:36 | 26.06697 | -80.15454 | 29 ft | 0 kts | 272° |
| 2026-05-03 23:37 | 26.06697 | -80.15456 | 29 ft | 2 kts | 272° |
| 2026-05-03 23:37 | 26.06698 | -80.15474 | 28 ft | 0 kts | 271° |
| 2026-05-03 23:39 | 26.06698 | -80.15475 | 28 ft | 1 kts | 271° |
| 2026-05-03 23:40 | 26.06698 | -80.15477 | 28 ft | 0 kts | 271° |
| 2026-05-03 23:46 | 26.06698 | -80.15478 | 28 ft | 1 kts | 271° |
| 2026-05-03 23:46 | 26.06698 | -80.15493 | 28 ft | 4 kts | 270° |
| 2026-05-03 23:47 | 26.06698 | -80.15551 | 27 ft | 8 kts | 270° |
| 2026-05-03 23:47 | 26.06698 | -80.15578 | 27 ft | 4 kts | 270° |
| 2026-05-03 23:47 | 26.06698 | -80.15624 | 27 ft | 8 kts | 270° |
| 2026-05-03 23:47 | 26.06698 | -80.15685 | 30 ft | 6 kts | 270° |
| 2026-05-03 23:48 | 26.06698 | -80.15693 | 30 ft | 0 kts | 270° |
| 2026-05-03 23:49 | 26.06698 | -80.15695 | 29 ft | 1 kts | 270° |
| 2026-05-03 23:49 | 26.06698 | -80.15700 | 28 ft | 0 kts | 270° |
| 2026-05-03 23:51 | 26.06698 | -80.15719 | 30 ft | 6 kts | 270° |
| 2026-05-03 23:52 | 26.06698 | -80.15756 | 27 ft | 0 kts | 269° |
| 2026-05-03 23:52 | 26.06698 | -80.15768 | 30 ft | 0 kts | 269° |
| 2026-05-03 23:52 | 26.06695 | -80.15792 | 27 ft | 6 kts | 251° |
| 2026-05-03 23:53 | 26.06681 | -80.15813 | 25 ft | 0 kts | 220° |
| 2026-05-03 23:56 | 26.06676 | -80.15817 | 24 ft | 4 kts | 212° |
| 2026-05-03 23:56 | 26.06610 | -80.15809 | 23 ft | 11 kts | 141° |
| 2026-05-03 23:56 | 26.06589 | -80.15728 | 25 ft | 25 kts | 90° |
| 2026-05-03 23:56 | 26.06586 | -80.15276 | 27 ft | 91 kts | 90° |
| 2026-05-03 23:57 | 26.06581 | -80.14341 | 25 ft | 148 kts | 92° |
| 2026-05-03 23:57 | 26.06546 | -80.13151 | 378 ft | 161 kts | 90° |
| 2026-05-03 23:57 | 26.06274 | -80.11839 | 651 ft | 187 kts | 99° |
| 2026-05-03 23:57 | 26.06228 | -80.10326 | 992 ft | 206 kts | 74° |
| 2026-05-03 23:58 | 26.06800 | -80.08787 | 1454 ft | 227 kts | 64° |
| 2026-05-03 23:58 | 26.07483 | -80.07135 | 1932 ft | 248 kts | 71° |
| 2026-05-03 23:58 | 26.08149 | -80.05316 | 2565 ft | 260 kts | 60° |
| 2026-05-03 23:58 | 26.09250 | -80.03688 | 3270 ft | 267 kts | 41° |
| 2026-05-03 23:59 | 26.10821 | -80.02599 | 3769 ft | 269 kts | 17° |
| 2026-05-03 23:59 | 26.12652 | -80.02488 | 3975 ft | 264 kts | 342° |
| 2026-05-03 23:59 | 26.14307 | -80.03351 | 4207 ft | 265 kts | 327° |
| 2026-05-03 23:59 | 26.15919 | -80.04374 | 4908 ft | 268 kts | 331° |
| 2026-05-04 00:00 | 26.17630 | -80.05230 | 5772 ft | 270 kts | 334° |
| 2026-05-04 00:00 | 26.19387 | -80.06005 | 6591 ft | 273 kts | 335° |
| 2026-05-04 00:00 | 26.21181 | -80.06750 | 7363 ft | 276 kts | 335° |
| 2026-05-04 00:00 | 26.22805 | -80.07838 | 8152 ft | 271 kts | 308° |
| 2026-05-04 00:01 | 26.23699 | -80.09646 | 8994 ft | 267 kts | 287° |
| 2026-05-04 00:01 | 26.24259 | -80.11594 | 9866 ft | 268 kts | 285° |
| 2026-05-04 00:01 | 26.24834 | -80.13598 | 10486 ft | 279 kts | 286° |